Time;durP1;ratioP1;P1;durP2;ratioP2;P2;SDS_P1;SDS_P2;PMS_P1;PMS_P2;Temp;Humidity;BMP_temperature;BMP_pressure;BME280_temperature;BME280_humidity;BME280_pressure;Samples;Min_cycle;Max_cycle;Signal;HPM_P1;HPM_P2
2022/07/04 00:02:16;;;;;;;0.22;0.17;;;;;;;-145.06;100.00;60892.56;6064284;22;20000;-93
2022/07/04 00:04:56;;;;;;;0.43;0.30;;;;;;;-145.06;100.00;60892.56;6063853;22;20038;-89
2022/07/04 00:07:55;;;;;;;0.28;0.28;;;;;;;-145.06;100.00;60892.56;6064190;22;20560;-91
2022/07/04 00:10:43;;;;;;;0.30;0.20;;;;;;;-145.06;100.00;60892.56;6062537;22;20434;-90
2022/07/04 00:13:32;;;;;;;0.30;0.30;;;;;;;-145.06;100.00;60892.56;6094259;22;20007;-90
2022/07/04 00:16:23;;;;;;;1.05;0.30;;;;;;;-145.06;100.00;60892.56;6062472;22;20030;-91
2022/07/04 00:19:03;;;;;;;0.65;0.40;;;;;;;-145.06;100.00;60892.56;6064257;22;20302;-91
2022/07/04 00:21:56;;;;;;;0.30;0.30;;;;;;;-145.06;100.00;60892.56;6064525;22;20311;-90
2022/07/04 00:24:43;;;;;;;0.30;0.30;;;;;;;-145.06;100.00;60892.56;6063584;22;20302;-90
2022/07/04 00:33:55;;;;;;;0.85;0.30;;;;;;;-145.06;100.00;60892.56;6097150;22;20027;-90
2022/07/04 00:36:54;;;;;;;0.20;0.20;;;;;;;-145.06;100.00;60892.56;6064310;22;20034;-91
2022/07/04 00:39:45;;;;;;;1.35;0.35;;;;;;;-145.06;100.00;60892.56;6065541;22;20007;-90
2022/07/04 00:42:32;;;;;;;0.20;0.20;;;;;;;-145.06;100.00;60892.56;6066267;22;19999;-91
2022/07/04 00:45:11;;;;;;;0.55;0.25;;;;;;;-145.06;100.00;60892.56;6081698;22;20011;-90
2022/07/04 00:48:01;;;;;;;0.25;0.22;;;;;;;-145.06;100.00;60892.56;6088195;22;20047;-92
2022/07/04 00:50:53;;;;;;;0.35;0.30;;;;;;;-145.06;100.00;60892.56;6066415;22;20007;-91
2022/07/04 00:53:44;;;;;;;0.40;0.30;;;;;;;-145.06;100.00;60892.56;6064793;22;19999;-91
2022/07/04 00:56:45;;;;;;;0.38;0.20;;;;;;;-145.06;100.00;60892.56;6064394;22;20029;-90
2022/07/04 00:59:34;;;;;;;0.20;0.20;;;;;;;-145.06;100.00;60892.56;6064425;22;20004;-91
2022/07/04 01:02:19;;;;;;;0.20;0.20;;;;;;;-145.06;100.00;60892.56;6065703;22;19999;-91
2022/07/04 01:05:03;;;;;;;0.52;0.25;;;;;;;-145.06;100.00;60892.56;6066292;22;20074;-91
2022/07/04 01:07:54;;;;;;;0.68;0.30;;;;;;;-145.06;100.00;60892.56;6099312;22;20003;-91
2022/07/04 01:14:05;;;;;;;0.10;0.10;;;;;;;-145.06;100.00;60892.56;6076813;22;20003;-90
2022/07/04 01:16:53;;;;;;;0.50;0.20;;;;;;;-145.06;100.00;60892.56;6065632;22;19999;-90
2022/07/04 01:19:38;;;;;;;0.43;0.30;;;;;;;-145.06;100.00;60892.56;6066184;22;20119;-90
2022/07/04 01:22:25;;;;;;;0.40;0.30;;;;;;;-145.06;100.00;60892.56;6065686;22;20429;-91
2022/07/04 01:25:39;;;;;;;0.25;0.25;;;;;;;-145.06;100.00;60892.56;6066270;22;20003;-90
2022/07/04 01:28:21;;;;;;;0.20;0.20;;;;;;;-145.06;100.00;60892.56;6066178;22;19999;-89
2022/07/04 01:31:17;;;;;;;0.20;0.20;;;;;;;-145.06;100.00;60892.56;6065936;22;20011;-91
2022/07/04 01:33:57;;;;;;;0.43;0.30;;;;;;;-145.06;100.00;60892.56;6065769;22;20015;-89
2022/07/04 01:36:48;;;;;;;0.55;0.30;;;;;;;-145.06;100.00;60892.56;6066405;22;20003;-90
2022/07/04 01:39:46;;;;;;;1.73;0.20;;;;;;;-145.06;100.00;60892.56;6066393;22;20003;-90
2022/07/04 01:42:34;;;;;;;0.57;0.40;;;;;;;-145.06;100.00;60892.56;6066253;22;20007;-90
2022/07/04 01:45:16;;;;;;;0.25;0.22;;;;;;;-145.06;100.00;60892.56;6065618;22;20453;-91
2022/07/04 01:48:00;;;;;;;0.47;0.30;;;;;;;-145.06;100.00;60892.56;6066314;22;20043;-91
2022/07/04 01:50:42;;;;;;;0.40;0.20;;;;;;;-145.06;100.00;60892.56;6065926;22;20003;-92
2022/07/04 01:53:34;;;;;;;;;;;;;;;;;;;;;
2022/07/04 02:01:29;;;;;;;0.20;0.20;;;;;;;-145.06;100.00;60892.56;6074069;22;20035;-91
2022/07/04 02:02:28;;;;;;;0.30;0.30;;;;;;;-145.06;100.00;60892.56;6088812;22;20003;-90
2022/07/04 02:05:10;;;;;;;0.20;0.20;;;;;;;-145.06;100.00;60892.56;6066140;22;20696;-89
2022/07/04 02:07:55;;;;;;;0.28;0.28;;;;;;;-145.06;100.00;60892.56;6065557;22;20427;-91
2022/07/04 02:11:11;;;;;;;0.52;0.20;;;;;;;-145.06;100.00;60892.56;6064376;22;20457;-91
2022/07/04 02:14:05;;;;;;;0.20;0.20;;;;;;;-145.06;100.00;60892.56;6065600;22;20003;-91
2022/07/04 02:17:06;;;;;;;;;;;;;;;;;;;;;
2022/07/04 02:20:08;;;;;;;0.20;0.20;;;;;;;-145.06;100.00;60892.56;6099589;22;20003;-90
2022/07/04 02:22:56;;;;;;;0.30;0.20;;;;;;;-145.06;100.00;60892.56;6065779;22;20007;-90
2022/07/04 02:25:52;;;;;;;0.50;0.28;;;;;;;-145.06;100.00;60892.56;6066008;22;20445;-92
2022/07/04 02:28:40;;;;;;;0.30;0.30;;;;;;;-145.06;100.00;60892.56;6065930;22;19999;-91
2022/07/04 02:31:34;;;;;;;0.30;0.20;;;;;;;-145.06;100.00;60892.56;6065533;22;20028;-90
2022/07/04 02:34:24;;;;;;;0.20;0.20;;;;;;;-145.06;100.00;60892.56;6066026;22;20401;-90
2022/07/04 02:37:22;;;;;;;;;;;;;;;;;;;;;
2022/07/04 02:40:10;;;;;;;0.20;0.20;;;;;;;-145.06;100.00;60892.56;6099330;22;20007;-91
2022/07/04 02:43:23;;;;;;;0.20;0.20;;;;;;;-145.06;100.00;60892.56;6065855;22;20003;-90
2022/07/04 02:46:24;;;;;;;0.60;0.20;;;;;;;-145.06;100.00;60892.56;6088508;22;20314;-90
2022/07/04 02:49:30;;;;;;;0.20;0.20;;;;;;;-145.06;100.00;60892.56;6065279;22;20078;-91
2022/07/04 02:52:26;;;;;;;0.22;0.20;;;;;;;-145.06;100.00;60892.56;6064891;22;20003;-90
2022/07/04 02:55:20;;;;;;;0.50;0.20;;;;;;;-145.06;100.00;60892.56;6065488;22;20011;-91
2022/07/04 02:58:10;;;;;;;0.30;0.30;;;;;;;-145.06;100.00;60892.56;6098857;22;20074;-92
2022/07/04 03:01:24;;;;;;;0.20;0.20;;;;;;;-145.06;100.00;60892.56;6065418;22;20320;-92
2022/07/04 03:04:27;;;;;;;0.20;0.20;;;;;;;-145.06;100.00;60892.56;6064619;22;20007;-90
2022/07/04 03:07:30;;;;;;;0.20;0.20;;;;;;;-145.06;100.00;60892.56;6064606;22;20003;-91
2022/07/04 03:10:12;;;;;;;0.45;0.30;;;;;;;-145.06;100.00;60892.56;6065245;22;20601;-91
2022/07/04 03:13:05;;;;;;;0.30;0.30;;;;;;;-145.06;100.00;60892.56;6065172;22;20003;-90
2022/07/04 03:15:48;;;;;;;0.40;0.20;;;;;;;-145.06;100.00;60892.56;6065262;22;20003;-90
2022/07/04 03:18:43;;;;;;;0.63;0.20;;;;;;;-145.06;100.00;60892.56;6064889;22;20027;-91
2022/07/04 03:21:31;;;;;;;0.20;0.20;;;;;;;-145.06;100.00;60892.56;6043329;22;20035;-90
2022/07/04 03:24:22;;;;;;;0.40;0.30;;;;;;;-145.06;100.00;60892.56;6064807;22;20027;-91
2022/07/04 03:27:25;;;;;;;0.13;0.13;;;;;;;-145.06;100.00;60892.56;6065472;22;20034;-91
2022/07/04 03:30:39;;;;;;;0.50;0.30;;;;;;;-145.06;100.00;60892.56;6065341;22;20062;-92
2022/07/04 03:36:47;;;;;;;0.43;0.30;;;;;;;-145.06;100.00;60892.56;6100534;22;20034;-90
2022/07/04 03:40:25;;;;;;;0.35;0.20;;;;;;;-145.06;100.00;60892.56;6073658;22;20011;-90
2022/07/04 03:43:35;;;;;;;;;;;;;;;;;;;;;
2022/07/04 03:46:38;;;;;;;0.38;0.25;;;;;;;-145.06;100.00;60892.56;6098741;22;20003;-91
2022/07/04 03:50:02;;;;;;;0.30;0.22;;;;;;;-145.06;100.00;60892.56;6065238;22;19999;-90
2022/07/04 03:56:51;;;;;;;0.50;0.30;;;;;;;-145.06;100.00;60892.56;6005683;23;20005;-91
2022/07/04 03:59:32;;;;;;;;;;;;;;;-145.06;100.00;60892.56;5998728;23;20009;-91
2022/07/04 04:02:35;;;;;;;;;;;;;;;;;;;;;
2022/07/04 04:07:04;;;;;;;0.35;0.30;;;;;;;-145.06;100.00;60892.56;6057088;22;20003;-91
2022/07/04 04:10:03;;;;;;;0.38;0.22;;;;;;;-145.06;100.00;60892.56;6085243;22;20007;-91
2022/07/04 04:13:23;;;;;;;;;;;;;;;;;;;;;
2022/07/04 04:17:01;;;;;;;0.30;0.30;;;;;;;-145.06;100.00;60892.56;6098534;22;20007;-91
2022/07/04 04:26:57;;;;;;;1.52;0.20;;;;;;;-145.06;100.00;60892.56;6067939;22;20310;-91
2022/07/04 04:30:10;;;;;;;0.20;0.20;;;;;;;-145.06;100.00;60892.56;6035208;22;20071;-91
2022/07/04 04:33:47;;;;;;;0.70;0.30;;;;;;;-145.06;100.00;60892.56;6035356;22;20598;-91
2022/07/04 04:36:55;;;;;;;0.30;0.20;;;;;;;-145.06;100.00;60892.56;5988769;22;20003;-92
2022/07/04 04:40:19;;;;;;;0.20;0.20;;;;;;;-145.06;100.00;60892.56;6037558;22;20031;-91
2022/07/04 04:47:42;;;;;;;0.40;0.30;;;;;;;-145.06;100.00;60892.56;5950004;23;20006;-92
2022/07/04 04:54:53;;;;;;;0.20;0.20;;;;;;;-145.06;100.00;60892.56;5869931;23;20484;-90
2022/07/04 04:58:09;;;;;;;0.68;0.30;;;;;;;-145.06;100.00;60892.56;5953602;22;20000;-91
2022/07/04 05:01:32;;;;;;;;;;;;;;;;;;;;;
2022/07/04 05:04:48;;;;;;;;;;;;;;;;;;;;;
2022/07/04 05:15:13;;;;;;;0.20;0.20;;;;;;;-145.06;100.00;60892.56;6069190;22;20007;-90
2022/07/04 05:18:08;;;;;;;0.20;0.20;;;;;;;-145.06;100.00;60892.56;6036851;22;20008;-92
2022/07/04 05:21:22;;;;;;;0.40;0.25;;;;;;;-145.06;100.00;60892.56;6049133;22;20007;-91
2022/07/04 05:24:41;;;;;;;0.30;0.20;;;;;;;-145.06;100.00;60892.56;6012551;22;20007;-91
2022/07/04 05:31:01;;;;;;;0.20;0.20;;;;;;;-145.06;100.00;60892.56;6005866;22;20007;-90
2022/07/04 05:34:36;;;;;;;;;;;;;;;;;;;;;
2022/07/04 05:41:34;;;;;;;0.28;0.20;;;;;;;-145.06;100.00;60892.56;6058653;22;20031;-91
2022/07/04 05:44:40;;;;;;;0.10;0.10;;;;;;;-145.06;100.00;60892.56;6054865;22;20477;-91
2022/07/04 05:47:55;;;;;;;0.10;0.10;;;;;;;-145.06;100.00;60892.56;6027457;23;20450;-92
2022/07/04 05:54:48;;;;;;;0.30;0.20;;;;;;;-145.06;100.00;60892.56;6023397;22;20000;-90
2022/07/04 05:58:20;;;;;;;0.20;0.20;;;;;;;-145.06;100.00;60892.56;6028052;23;20581;-91
2022/07/04 06:05:44;;;;;;;;;;;;;;;;;;;;;
2022/07/04 06:08:58;;;;;;;0.82;0.30;;;;;;;-145.06;100.00;60892.56;6039575;23;20009;-89
2022/07/04 06:20:46;;;;;;;0.35;0.10;;;;;;;-145.06;100.00;60892.56;6057842;22;20035;-91
2022/07/04 06:26:23;;;;;;;1.85;0.38;;;;;;;-145.06;100.00;60892.56;6058923;22;20020;-91
2022/07/04 06:29:08;;;;;;;0.20;0.20;;;;;;;-145.06;100.00;60892.56;6054735;22;20004;-90
2022/07/04 06:32:04;;;;;;;0.20;0.20;;;;;;;-145.06;100.00;60892.56;6057431;22;20034;-89
2022/07/04 06:38:51;;;;;;;0.45;0.20;;;;;;;-145.06;100.00;60892.56;6067958;22;20298;-91
2022/07/04 06:41:33;;;;;;;0.25;0.20;;;;;;;-145.06;100.00;60892.56;6034992;22;20004;-90
2022/07/04 06:44:53;;;;;;;;;;;;;;;;;;;;;
2022/07/04 06:47:44;;;;;;;0.13;0.13;;;;;;;-145.06;100.00;60892.56;6067718;22;20004;-91
2022/07/04 06:50:52;;;;;;;0.28;0.20;;;;;;;-145.06;100.00;60892.56;6035493;22;19999;-91
2022/07/04 06:57:36;;;;;;;0.10;0.10;;;;;;;-145.06;100.00;60892.56;6067438;22;20011;-90
2022/07/04 07:00:38;;;;;;;0.20;0.20;;;;;;;-145.06;100.00;60892.56;6035276;22;20004;-91
2022/07/04 07:04:04;;;;;;;;;;;;;;;;;;;;;
2022/07/04 07:21:44;;;;;;;0.30;0.20;;;;;;;-145.06;100.00;60892.56;6024002;22;20020;-91
2022/07/04 07:25:26;;;;;;;0.55;0.20;;;;;;;-145.06;100.00;60892.56;6055624;22;20004;-88
2022/07/04 07:28:28;;;;;;;0.35;0.20;;;;;;;-145.06;100.00;60892.56;6009062;23;20008;-91
2022/07/04 07:31:31;;;;;;;0.20;0.20;;;;;;;-145.06;100.00;60892.56;6027497;23;20096;-91
2022/07/04 07:34:32;;;;;;;0.68;0.28;;;;;;;-145.06;100.00;60892.56;6028157;22;20032;-91
2022/07/04 07:41:18;;;;;;;0.65;0.30;;;;;;;-145.06;100.00;60892.56;5989305;23;20012;-89
2022/07/04 07:44:16;;;;;;;0.20;0.20;;;;;;;-145.06;100.00;60892.56;6005518;22;20004;-90
2022/07/04 07:51:28;;;;;;;0.20;0.20;;;;;;;-145.06;100.00;60892.56;6037825;23;20008;-88
2022/07/04 07:54:23;;;;;;;0.20;0.20;;;;;;;-145.06;100.00;60892.56;6026714;22;20004;-90
2022/07/04 07:57:18;;;;;;;1.00;0.20;;;;;;;-145.06;100.00;60892.56;6026948;23;20476;-91
2022/07/04 08:00:06;;;;;;;1.20;0.22;;;;;;;-145.06;100.00;60892.56;6027071;23;20461;-90
2022/07/04 08:07:01;;;;;;;0.22;0.10;;;;;;;-145.06;100.00;60892.56;6037776;23;20434;-91
2022/07/04 08:09:56;;;;;;;0.20;0.20;;;;;;;-145.06;100.00;60892.56;6026602;23;20327;-89
2022/07/04 08:12:46;;;;;;;0.20;0.20;;;;;;;-145.06;100.00;60892.56;6026290;23;20082;-90
2022/07/04 08:15:54;;;;;;;0.50;0.20;;;;;;;-145.06;100.00;60892.56;6026697;22;20008;-91
2022/07/04 08:18:50;;;;;;;0.98;0.30;;;;;;;-145.06;100.00;60892.56;6026639;23;19996;-91
2022/07/04 08:22:02;;;;;;;0.35;0.17;;;;;;;-145.06;100.00;60892.56;6026694;23;20004;-91
2022/07/04 08:31:42;;;;;;;0.30;0.20;;;;;;;-145.06;100.00;60892.56;6066510;22;20003;-90
2022/07/04 08:34:58;;;;;;;1.52;0.40;;;;;;;-145.06;100.00;60892.56;6034237;22;20366;-91
2022/07/04 08:37:40;;;;;;;0.85;0.40;;;;;;;-145.06;100.00;60892.56;6034475;22;20004;-91
2022/07/04 08:45:03;;;;;;;0.52;0.20;;;;;;;-145.06;100.00;60892.56;6067391;22;20367;-90
2022/07/04 08:48:32;;;;;;;;;;;;;;;;;;;;;
2022/07/04 08:52:26;;;;;;;;;;;;;;;;;;;;;
2022/07/04 08:59:00;;;;;;;;;;;;;;;;;;;;;
2022/07/04 09:02:23;;;;;;;0.30;0.20;;;;;;;-145.06;100.00;60892.56;6066997;22;20007;-90
2022/07/04 09:05:31;;;;;;;;;;;;;;;;;;;;;
2022/07/04 09:09:08;;;;;;;;;;;;;;;;;;;;;
2022/07/04 09:12:15;;;;;;;1.23;0.10;;;;;;;-145.06;100.00;60892.56;6057047;22;20083;-91
2022/07/04 09:15:32;;;;;;;0.28;0.13;;;;;;;-145.06;100.00;60892.56;6055901;22;20003;-91
2022/07/04 09:19:08;;;;;;;0.20;0.17;;;;;;;-145.06;100.00;60892.56;6033786;22;19996;-89
2022/07/04 09:22:18;;;;;;;0.32;0.10;;;;;;;-145.06;100.00;60892.56;6033005;22;20011;-90
2022/07/04 09:29:41;;;;;;;;;;;;;;;;;;;;;
2022/07/04 09:33:21;;;;;;;;;;;;;;;;;;;;;
2022/07/04 09:37:47;;;;;;;0.47;0.20;;;;;;;-145.06;100.00;60892.56;6068062;22;19996;-92
2022/07/04 09:40:15;;;;;;;0.35;0.20;;;;;;;-145.06;100.00;60892.56;6046244;22;20012;-90
2022/07/04 09:47:27;;;;;;;0.52;0.10;;;;;;;-145.06;100.00;60892.56;5957033;23;20001;-90
2022/07/04 09:50:38;;;;;;;0.50;0.20;;;;;;;-145.06;100.00;60892.56;6034763;22;20035;-91
2022/07/04 09:53:45;;;;;;;;;;;;;;;;;;;;;
2022/07/04 09:57:12;;;;;;;0.43;0.13;;;;;;;-145.06;100.00;60892.56;6068154;22;20311;-90
2022/07/04 10:00:30;;;;;;;0.73;0.10;;;;;;;-145.06;100.00;60892.56;5984957;22;20008;-91
2022/07/04 10:03:40;;;;;;;0.25;0.10;;;;;;;-145.06;100.00;60892.56;6035433;22;20083;-90
2022/07/04 10:07:31;;;;;;;;;;;;;;;;;;;;;
2022/07/04 10:13:51;;;;;;;0.63;0.30;;;;;;;-145.06;100.00;60892.56;6067171;22;20639;-91
2022/07/04 10:16:31;;;;;;;1.17;0.50;;;;;;;-145.06;100.00;60892.56;6034939;22;20007;-90
2022/07/04 10:19:22;;;;;;;0.30;0.13;;;;;;;-145.06;100.00;60892.56;6067672;22;19999;-92
2022/07/04 10:36:30;;;;;;;0.52;0.20;;;;;;;-145.06;100.00;60892.56;6092368;22;20027;-91
2022/07/04 12:29:28;;;;;;;;;;;;;;;;;;;;;
2022/07/04 20:11:35;;;;;;;0.63;0.25;;;;;;;-145.06;100.00;60892.56;5776769;24;20016;-93
2022/07/04 20:14:40;;;;;;;1.33;0.50;;;;;;;-145.06;100.00;60892.56;5794890;23;20008;-92
2022/07/04 20:18:19;;;;;;;;;;;;;;;;;;;;;
2022/07/04 20:21:56;;;;;;;0.50;0.40;;;;;;;-145.06;100.00;60892.56;5785704;23;20074;-92
2022/07/04 21:53:29;;;;;;;;;;;;;;;-145.06;100.00;60892.56;5861306;23;20027;-90
